Terminal Aerodrome Forecast
Issued by NWS Upton, NY

Current Version | Previous Version | Text Only | Print | Product List | Glossary On
Versions: 1 2 3 4 5 6 7 8 9 10 11 12 13 14 15 16 17 18 19 20 21 22 23 24 25 26
557
FTUS41 KOKX 240535
TAFJFK
TAF
KJFK 240535Z 2406/2512 15015G24KT P6SM BKN025 BKN250
     FM240900 16018G30KT 5SM -SHRA SCT005 OVC012 WS020/17050KT
     FM241200 16021G32KT 2SM +SHRA VCTS SCT005CB OVC012
      WS020/17050KT
     FM241500 17022G36KT 2SM +SHRA VCTS SCT005CB OVC012
      WS020/17050KT
     FM250200 21014G20KT 2SM +SHRA VCTS SCT005CB OVC012
      WS020/17050KT
     FM250300 22012KT 2SM +SHRA VCTS SCT005CB OVC012
     FM250500 17007KT 2SM +SHRA VCTS SCT005CB OVC012
     FM250800 22006KT 5SM SHRA SCT008 OVC020=

USA.gov is the U.S. government's official web portal to all federal, state and local government web resources and services.